createdAt,value
2023-04-18T08:48:07.913Z,100509.38
2023-04-18T09:01:23.377Z,100508.38
2023-04-18T09:11:36.530Z,100494.56
2023-04-18T09:15:06.512Z,100497.72
2023-04-18T09:18:37.571Z,100506.16
2023-04-18T09:21:53.948Z,100497.34
2023-04-18T09:30:01.303Z,100499.81
2023-04-18T09:37:23.864Z,100489.13
2023-04-18T09:41:08.993Z,100482.34
2023-04-18T09:44:28.390Z,100494.94
2023-04-18T09:53:26.355Z,100475.72
2023-04-18T09:57:06.830Z,100473.88
2023-04-18T10:00:35.230Z,100483.31
2023-04-18T10:05:42.699Z,100472.84
2023-04-18T10:08:38.806Z,100484.47
2023-04-18T10:12:28.235Z,100468.56
2023-04-18T10:15:46.622Z,100467.91
2023-04-18T10:18:57.926Z,100457.69
2023-04-18T10:22:07.506Z,100459.50
2023-04-18T10:26:06.140Z,100469.47
2023-04-18T10:29:14.577Z,100465.19
2023-04-18T10:32:34.180Z,100456.94
2023-04-18T10:35:47.560Z,100457.88
2023-04-18T10:39:40.572Z,100448.38
2023-04-18T10:47:32.068Z,100449.19
2023-04-18T10:51:20.984Z,100443.25
2023-04-18T10:55:03.405Z,100434.00
2023-04-18T10:58:39.325Z,100431.84
2023-04-18T11:01:59.860Z,100429.06
2023-04-18T11:05:25.804Z,100425.66
2023-04-18T11:17:06.737Z,100432.53
2023-04-18T11:20:23.426Z,100433.91
2023-04-18T11:23:37.291Z,100437.16
2023-04-18T11:34:11.074Z,100435.53
2023-04-18T11:37:43.691Z,100430.25
2023-04-18T11:47:19.826Z,100425.25
2023-04-18T11:55:21.708Z,100424.75
2023-04-18T11:58:39.578Z,100430.06
2023-04-18T12:02:16.209Z,100418.28
2023-04-18T12:05:29.949Z,100415.50
2023-04-18T12:08:34.597Z,100413.31
2023-04-18T12:11:43.696Z,100413.91
2023-04-18T12:14:59.943Z,100413.88
2023-04-18T12:18:18.412Z,100415.78
2023-04-18T12:21:31.212Z,100402.63
2023-04-18T12:24:44.723Z,100400.06
2023-04-18T12:28:23.101Z,100392.69
2023-04-18T12:31:29.893Z,100387.91
2023-04-18T12:34:39.798Z,100392.38
2023-04-18T12:37:45.705Z,100379.00
2023-04-18T12:40:55.659Z,100380.41
2023-04-18T12:44:21.347Z,100367.28
2023-04-18T12:48:38.107Z,100364.78
2023-04-18T12:51:53.213Z,100359.59
2023-04-18T12:58:21.405Z,100351.47
2023-04-18T13:01:33.455Z,100355.31
2023-04-18T13:04:51.065Z,100343.41
2023-04-18T13:08:08.533Z,100348.00
2023-04-18T13:11:29.062Z,100348.56
2023-04-18T13:14:38.395Z,100342.28
2023-04-18T13:18:11.615Z,100340.63
2023-04-18T13:21:15.369Z,100338.59
2023-04-18T13:24:21.183Z,100341.16
2023-04-18T13:27:35.206Z,100336.16
2023-04-18T13:30:39.061Z,100343.75
2023-04-18T13:33:52.506Z,100346.28
2023-04-18T13:36:59.063Z,100336.53
2023-04-18T13:40:15.688Z,100321.44
2023-04-18T13:43:20.187Z,100329.09
2023-04-18T13:46:27.944Z,100336.16
2023-04-18T13:49:35.719Z,100331.84
2023-04-18T13:52:42.982Z,100334.72
2023-04-18T13:56:06.338Z,100334.16
2023-04-18T13:59:37.081Z,100317.16
2023-04-18T14:03:04.264Z,100323.91
2023-04-18T14:06:36.634Z,100329.31
2023-04-18T14:09:47.785Z,100333.06
2023-04-18T14:13:22.815Z,100343.91
2023-04-18T14:17:06.991Z,100330.00
2023-04-18T14:20:38.736Z,100330.91
2023-04-18T14:24:01.495Z,100346.59
2023-04-18T14:27:07.704Z,100348.50
2023-04-18T14:30:16.606Z,100347.69
2023-04-18T14:33:20.294Z,100362.78
2023-04-18T14:36:48.746Z,100355.53
2023-04-18T14:40:00.517Z,100361.03
2023-04-18T14:43:08.605Z,100365.06
2023-04-18T14:46:14.033Z,100366.72
2023-04-18T14:49:22.635Z,100381.44
2023-04-18T14:52:43.635Z,100374.91
2023-04-18T14:55:50.584Z,100378.22
2023-04-18T14:58:59.302Z,100373.72
2023-04-18T15:02:05.842Z,100389.38
2023-04-18T15:05:13.192Z,100392.94
2023-04-18T15:08:21.102Z,100403.94
2023-04-18T15:11:25.299Z,100401.91
2023-04-18T15:14:32.907Z,100395.75
2023-04-18T15:17:41.196Z,100395.13
2023-04-18T15:22:49.208Z,100390.06
2023-04-18T15:27:20.918Z,100395.13
2023-04-18T15:31:29.898Z,100383.84
2023-04-18T15:35:11.869Z,100383.25
2023-04-18T15:39:00.263Z,100386.19
2023-04-18T15:43:15.365Z,100396.84
2023-04-18T15:46:41.499Z,100435.03
2023-04-18T15:50:03.272Z,100393.06
2023-04-18T15:53:15.964Z,100397.22
2023-04-18T15:56:46.060Z,100406.91
2023-04-18T16:01:00.640Z,100414.59
2023-04-18T16:04:34.944Z,100412.41
2023-04-18T16:08:16.491Z,100415.84
2023-04-18T16:11:47.497Z,100411.06
2023-04-18T16:14:50.683Z,100415.56
2023-04-18T16:17:58.178Z,100417.66
2023-04-18T16:21:04.302Z,100411.72
2023-04-18T16:24:12.922Z,100407.81
2023-04-18T16:27:24.278Z,100404.75
2023-04-18T16:31:49.855Z,100402.69
2023-04-18T16:34:53.378Z,100410.84
2023-04-18T16:38:05.180Z,100403.13
2023-04-18T16:41:09.059Z,100408.78
2023-04-18T16:44:13.523Z,100408.56
2023-04-18T16:47:31.727Z,100409.63
2023-04-18T16:50:55.149Z,100409.34
2023-04-18T16:54:08.577Z,100403.91
2023-04-18T16:57:21.660Z,100405.06
2023-04-18T17:00:26.027Z,100403.53
2023-04-18T17:03:32.586Z,100400.59
2023-04-18T17:06:36.712Z,100404.41
2023-04-18T17:09:42.226Z,100403.38
2023-04-18T17:12:49.317Z,100395.44
2023-04-18T17:15:53.987Z,100408.16
2023-04-18T17:19:04.438Z,100409.84
2023-04-18T17:22:09.153Z,100404.81
2023-04-18T17:25:15.013Z,100400.47
2023-04-18T17:28:22.065Z,100397.34
2023-04-18T17:31:26.209Z,100402.66
2023-04-18T17:34:31.426Z,100400.88
2023-04-18T17:37:37.358Z,100409.03
2023-04-18T17:40:42.571Z,100407.47
2023-04-18T17:43:56.897Z,100401.94
2023-04-18T17:47:02.621Z,100423.41
2023-04-18T17:50:12.764Z,100419.47
2023-04-18T17:53:19.417Z,100413.09
2023-04-18T17:56:23.205Z,100421.13
2023-04-18T17:59:28.526Z,100417.88
2023-04-18T18:02:37.416Z,100418.72
2023-04-18T18:05:45.619Z,100422.38
2023-04-18T18:08:49.960Z,100418.41
2023-04-18T18:11:57.537Z,100420.59
2023-04-18T18:15:05.928Z,100416.66
2023-04-18T18:18:18.388Z,100421.97
2023-04-18T18:21:36.731Z,100419.47
2023-04-18T18:24:48.504Z,100413.53
2023-04-18T18:27:54.959Z,100414.31
2023-04-18T18:31:04.908Z,100414.97
2023-04-18T18:34:14.817Z,100411.09
2023-04-18T18:37:24.128Z,100416.00
2023-04-18T18:40:31.691Z,100413.69
2023-04-18T18:43:39.583Z,100414.03
2023-04-18T18:46:43.525Z,100414.25
2023-04-18T18:49:50.763Z,100420.06
2023-04-18T18:52:54.640Z,100415.88
2023-04-18T18:56:02.932Z,100413.19
2023-04-18T18:59:17.376Z,100408.28
2023-04-18T19:02:26.298Z,100407.16
2023-04-18T19:05:37.429Z,100414.44
2023-04-18T19:08:42.989Z,100396.66
2023-04-18T19:11:50.247Z,100396.03
2023-04-18T19:14:54.048Z,100394.84
2023-04-18T19:17:59.288Z,100391.53
2023-04-18T19:21:05.000Z,100386.75
2023-04-18T19:24:09.100Z,100401.84
2023-04-18T19:27:12.597Z,100391.31
2023-04-18T19:30:17.072Z,100385.19
2023-04-18T19:33:21.581Z,100388.91
2023-04-18T19:36:25.375Z,100411.19
2023-04-18T19:39:29.599Z,100396.63
2023-04-18T19:42:33.676Z,100398.84
2023-04-18T19:45:37.364Z,100399.75
2023-04-18T19:48:41.136Z,100402.75
2023-04-18T19:51:45.718Z,100399.84
2023-04-18T19:54:55.885Z,100404.59
2023-04-18T19:58:01.862Z,100407.31
2023-04-18T20:01:07.203Z,100404.28
2023-04-18T20:04:12.356Z,100402.16
2023-04-18T20:07:20.971Z,100402.16
2023-04-18T20:10:24.704Z,100397.22
2023-04-18T20:13:28.982Z,100411.91
2023-04-18T20:16:33.836Z,100405.78
2023-04-18T20:19:38.327Z,100397.91
2023-04-18T20:22:45.148Z,100394.34
2023-04-18T20:25:48.526Z,100393.75
2023-04-18T20:28:51.942Z,100392.34
2023-04-18T20:31:56.215Z,100391.03
2023-04-18T20:35:00.308Z,100396.41
2023-04-18T20:38:03.836Z,100398.38
2023-04-18T20:41:12.531Z,100398.31
2023-04-18T20:44:22.429Z,100388.41
2023-04-18T20:47:27.996Z,100393.25
2023-04-18T20:50:33.288Z,100391.50
2023-04-18T20:53:38.203Z,100390.00
2023-04-18T20:56:41.904Z,100396.50
2023-04-18T20:59:45.819Z,100394.47
2023-04-18T21:02:49.089Z,100397.81
2023-04-18T21:05:53.196Z,100389.06
2023-04-18T21:08:56.751Z,100392.31
2023-04-18T21:12:00.390Z,100389.78
2023-04-18T21:15:05.672Z,100384.66
2023-04-18T21:18:10.034Z,100379.28
2023-04-18T21:21:13.452Z,100382.34
2023-04-18T21:24:18.382Z,100384.41
2023-04-18T21:27:22.362Z,100381.06
2023-04-18T21:30:26.052Z,100379.84
2023-04-18T21:33:29.536Z,100379.97
2023-04-18T21:36:33.143Z,100376.84
2023-04-18T21:39:43.887Z,100378.97
2023-04-18T21:42:55.754Z,100372.97
2023-04-18T21:46:00.927Z,100372.88
2023-04-18T21:49:05.894Z,100377.03
2023-04-18T21:52:10.108Z,100376.28
2023-04-18T21:55:16.452Z,100370.44
2023-04-18T21:58:24.340Z,100368.22
2023-04-18T22:01:34.608Z,100372.75
2023-04-18T22:04:52.572Z,100361.28
2023-04-18T22:08:00.458Z,100360.97
2023-04-18T22:11:22.480Z,100353.19
2023-04-18T22:14:36.086Z,100361.81
2023-04-18T22:17:42.402Z,100354.81
2023-04-18T22:20:55.331Z,100352.38
2023-04-18T22:24:04.963Z,100352.75
2023-04-18T22:27:10.082Z,100345.78
2023-04-18T22:30:27.284Z,100348.56
2023-04-18T22:33:31.498Z,100336.88
2023-04-18T22:36:38.140Z,100335.63
2023-04-18T22:39:42.133Z,100338.88
2023-04-18T22:42:47.051Z,100339.88
2023-04-18T22:45:52.735Z,100337.56
2023-04-18T22:49:08.562Z,100332.28
2023-04-18T22:52:28.300Z,100326.47
2023-04-18T22:55:33.234Z,100326.06
2023-04-18T22:58:52.169Z,100325.50
2023-04-18T23:02:07.999Z,100326.69
2023-04-18T23:05:16.540Z,100315.50
2023-04-18T23:08:22.712Z,100318.59
2023-04-18T23:11:35.175Z,100315.94
2023-04-18T23:14:41.422Z,100316.47
2023-04-18T23:17:56.236Z,100307.97
2023-04-18T23:21:05.137Z,100311.53
2023-04-18T23:24:15.329Z,100303.78
2023-04-18T23:27:20.072Z,100300.03
2023-04-18T23:30:26.012Z,100298.59
2023-04-18T23:33:29.454Z,100292.81
2023-04-18T23:36:34.187Z,100283.53
2023-04-18T23:39:37.581Z,100290.88
2023-04-18T23:42:42.352Z,100278.63
2023-04-18T23:45:46.799Z,100280.94
2023-04-18T23:48:50.138Z,100278.13
2023-04-18T23:51:53.363Z,100277.03
2023-04-18T23:55:00.890Z,100271.19
2023-04-18T23:58:08.109Z,100270.38
